createdAt,value
2022-10-14T00:01:27.062Z,5.40
2022-10-14T00:06:40.233Z,5.37
2022-10-14T00:11:42.956Z,5.34
2022-10-14T00:16:47.807Z,5.34
2022-10-14T00:21:50.714Z,5.35
2022-10-14T00:26:53.407Z,5.34
2022-10-14T00:31:56.233Z,5.32
2022-10-14T00:36:58.925Z,5.28
2022-10-14T00:42:01.581Z,5.29
2022-10-14T00:47:04.284Z,5.30
2022-10-14T00:52:19.375Z,5.29
2022-10-14T00:57:23.749Z,5.27
2022-10-14T01:02:26.795Z,5.30
2022-10-14T01:08:05.892Z,5.35
2022-10-14T01:13:17.599Z,5.39
2022-10-14T01:18:46.086Z,5.37
2022-10-14T01:24:13.606Z,5.40
2022-10-14T01:29:50.543Z,5.45
2022-10-14T01:35:08.700Z,5.46
2022-10-14T01:40:22.491Z,5.44
2022-10-14T01:45:28.817Z,5.46
2022-10-14T01:50:34.357Z,5.48
2022-10-14T01:55:42.362Z,5.46
2022-10-14T02:00:47.888Z,5.37
2022-10-14T02:05:54.815Z,5.28
2022-10-14T02:11:26.023Z,5.23
2022-10-14T02:16:40.964Z,5.13
2022-10-14T02:22:02.015Z,5.04
2022-10-14T02:27:10.185Z,4.98
2022-10-14T02:32:15.205Z,4.93
2022-10-14T02:37:20.092Z,4.86
2022-10-14T02:42:23.003Z,4.76
2022-10-14T02:47:26.481Z,4.66
2022-10-14T02:52:29.136Z,4.55
2022-10-14T02:57:31.975Z,4.41
2022-10-14T03:02:34.676Z,4.30
2022-10-14T03:07:37.371Z,4.22
2022-10-14T03:12:39.986Z,4.14
2022-10-14T03:17:42.665Z,4.06
2022-10-14T03:22:45.296Z,4.02
2022-10-14T03:27:48.062Z,3.98
2022-10-14T03:32:50.697Z,3.96
2022-10-14T03:37:54.998Z,3.97
2022-10-14T03:43:00.366Z,4.00
2022-10-14T03:48:03.078Z,3.99
2022-10-14T03:53:05.859Z,3.94
2022-10-14T03:58:10.297Z,3.91
2022-10-14T04:03:12.963Z,3.89
2022-10-14T04:08:15.897Z,3.84
2022-10-14T04:13:18.534Z,3.77
2022-10-14T04:18:21.233Z,3.69
2022-10-14T04:23:23.864Z,3.65
2022-10-14T04:28:26.901Z,3.62
2022-10-14T04:33:29.758Z,3.55
2022-10-14T04:38:33.646Z,3.45
2022-10-14T04:43:36.428Z,3.40
2022-10-14T04:48:39.045Z,3.42
2022-10-14T04:53:41.660Z,3.50
2022-10-14T04:58:44.627Z,3.60
2022-10-14T05:03:48.450Z,3.69
2022-10-14T05:08:51.227Z,3.76
2022-10-14T05:13:53.902Z,3.80
2022-10-14T05:18:57.264Z,3.84
2022-10-14T05:23:59.921Z,3.91
2022-10-14T05:29:03.176Z,3.95
2022-10-14T05:34:05.850Z,3.98
2022-10-14T05:39:09.435Z,4.04
2022-10-14T05:44:12.401Z,4.08
2022-10-14T05:49:15.095Z,4.16
2022-10-14T05:54:17.778Z,4.27
2022-10-14T05:59:20.496Z,4.38
2022-10-14T06:04:23.495Z,4.53
2022-10-14T06:09:26.290Z,4.57
2022-10-14T06:14:29.100Z,4.63
2022-10-14T06:19:32.820Z,4.72
2022-10-14T06:24:35.453Z,4.78
2022-10-14T06:29:38.644Z,4.88
2022-10-14T06:34:41.328Z,5.03
2022-10-14T06:39:45.259Z,5.20
2022-10-14T06:44:48.085Z,5.31
2022-10-14T06:49:50.859Z,5.40
2022-10-14T06:54:53.586Z,5.50
2022-10-14T06:59:56.304Z,5.62
2022-10-14T07:04:59.182Z,5.83
2022-10-14T07:10:01.810Z,6.12
2022-10-14T07:15:05.352Z,6.42
2022-10-14T07:20:08.457Z,6.68
2022-10-14T07:25:11.697Z,6.90
2022-10-14T07:30:16.783Z,7.08
2022-10-14T07:35:20.498Z,7.17
2022-10-14T07:40:23.346Z,7.19
2022-10-14T07:45:26.382Z,7.20
2022-10-14T07:50:29.773Z,7.33
2022-10-14T07:55:33.160Z,7.59
2022-10-14T08:00:40.064Z,7.81
2022-10-14T08:05:47.571Z,7.95
2022-10-14T08:10:50.313Z,8.16
2022-10-14T08:15:53.364Z,8.37
2022-10-14T08:21:00.426Z,8.48
2022-10-14T08:26:03.534Z,8.64
2022-10-14T08:31:06.130Z,8.92
2022-10-14T08:36:09.133Z,9.24
2022-10-14T08:41:33.682Z,9.52
2022-10-14T08:46:49.386Z,9.83
2022-10-14T08:52:03.905Z,10.22
2022-10-14T08:57:20.213Z,10.59
2022-10-14T09:02:44.359Z,10.86
2022-10-14T09:07:48.730Z,11.11
2022-10-14T09:12:53.531Z,11.34
2022-10-14T09:18:15.076Z,11.69
2022-10-14T09:23:24.171Z,12.11
2022-10-14T09:28:39.771Z,12.53
2022-10-14T09:33:44.692Z,12.92
2022-10-14T09:38:53.223Z,13.31
2022-10-14T09:44:14.726Z,13.62
2022-10-14T09:49:23.484Z,13.92
2022-10-14T09:54:29.421Z,14.24
2022-10-14T09:59:32.758Z,14.41
2022-10-14T10:04:42.916Z,14.51
2022-10-14T10:09:54.520Z,14.76
2022-10-14T10:15:06.191Z,14.80
2022-10-14T10:20:19.969Z,14.73
2022-10-14T10:25:28.458Z,14.90
2022-10-14T10:30:43.520Z,15.26
2022-10-14T10:36:05.742Z,15.47
2022-10-14T10:41:21.877Z,15.67
2022-10-14T10:46:27.187Z,15.84
2022-10-14T10:51:56.592Z,16.04
2022-10-14T10:57:08.105Z,16.29
2022-10-14T11:02:38.902Z,16.49
2022-10-14T11:08:09.543Z,16.75
2022-10-14T11:13:33.133Z,16.90
2022-10-14T11:18:49.084Z,16.93
2022-10-14T11:23:59.938Z,16.94
2022-10-14T11:29:20.464Z,17.04
2022-10-14T11:34:42.031Z,17.26
2022-10-14T11:40:18.088Z,17.42
2022-10-14T11:45:37.371Z,17.58
2022-10-14T11:50:45.990Z,17.73
2022-10-14T11:56:04.815Z,17.79
2022-10-14T12:01:09.181Z,17.85
2022-10-14T12:06:18.348Z,17.85
2022-10-14T12:11:35.886Z,17.79
2022-10-14T12:16:42.455Z,17.64
2022-10-14T12:22:01.309Z,17.52
2022-10-14T12:27:08.387Z,17.36
2022-10-14T12:32:21.213Z,17.24
2022-10-14T12:37:27.354Z,17.13
2022-10-14T12:42:35.160Z,17.14
2022-10-14T12:47:37.898Z,17.00
2022-10-14T12:52:45.098Z,16.77
2022-10-14T12:58:03.170Z,16.43
2022-10-14T13:03:19.933Z,16.40
2022-10-14T13:08:23.821Z,16.58
2022-10-14T13:13:39.013Z,16.63
2022-10-14T13:18:44.604Z,16.52
2022-10-14T13:23:51.531Z,16.29
2022-10-14T13:29:10.002Z,16.00
2022-10-14T13:34:43.280Z,15.81
2022-10-14T13:39:46.678Z,15.90
2022-10-14T13:44:49.793Z,16.37
2022-10-14T13:49:52.490Z,16.61
2022-10-14T13:55:13.896Z,16.51
2022-10-14T14:00:40.624Z,16.19
2022-10-14T14:05:45.871Z,15.84
2022-10-14T14:11:16.392Z,15.60
2022-10-14T14:16:23.101Z,15.51
2022-10-14T14:21:28.243Z,15.50
2022-10-14T14:26:38.938Z,15.38
2022-10-14T14:42:36.036Z,15.17
2022-10-14T14:47:39.909Z,15.08
2022-10-14T14:52:44.061Z,14.79
2022-10-14T14:57:55.013Z,14.51
2022-10-14T15:03:01.278Z,14.28
2022-10-14T15:08:04.494Z,14.08
2022-10-14T15:13:40.106Z,13.92
2022-10-14T15:18:43.739Z,13.74
2022-10-14T15:23:49.163Z,13.56
2022-10-14T15:29:10.626Z,13.38
2022-10-14T15:34:20.275Z,13.23
2022-10-14T15:39:23.087Z,13.10
2022-10-14T15:44:25.862Z,12.97
2022-10-14T15:49:32.953Z,12.83
2022-10-14T15:54:35.968Z,12.68
2022-10-14T15:59:38.772Z,12.53
2022-10-14T16:05:00.561Z,12.39
2022-10-14T16:10:06.949Z,12.29
2022-10-14T16:15:20.111Z,12.14
2022-10-14T16:20:23.166Z,11.95
2022-10-14T16:25:39.948Z,11.75
2022-10-14T16:30:51.285Z,11.58
2022-10-14T16:35:56.145Z,11.48
2022-10-14T16:41:01.891Z,11.36
2022-10-14T16:46:05.836Z,11.18
2022-10-14T16:51:09.019Z,10.98
2022-10-14T16:56:39.633Z,10.81
2022-10-14T17:01:42.429Z,10.68
2022-10-14T17:06:46.248Z,10.55
2022-10-14T17:11:49.981Z,10.40
2022-10-14T17:16:52.745Z,10.27
2022-10-14T17:21:55.475Z,10.15
2022-10-14T17:26:58.654Z,10.03
2022-10-14T17:32:01.222Z,9.96
2022-10-14T17:37:05.398Z,9.89
2022-10-14T17:42:08.222Z,9.79
2022-10-14T17:47:11.238Z,9.70
2022-10-14T17:52:13.895Z,9.65
2022-10-14T17:57:16.556Z,9.58
2022-10-14T18:02:20.773Z,9.48
2022-10-14T18:07:23.775Z,9.44
2022-10-14T18:12:26.682Z,9.41
2022-10-14T18:17:29.368Z,9.34
2022-10-14T18:22:34.876Z,9.29
2022-10-14T18:27:37.748Z,9.26
2022-10-14T18:32:40.381Z,9.27
2022-10-14T18:37:43.052Z,9.28
2022-10-14T18:42:45.744Z,9.31
2022-10-14T18:47:48.391Z,9.31
2022-10-14T18:52:51.597Z,9.30
2022-10-14T18:57:54.239Z,9.33
2022-10-14T19:02:57.310Z,9.38
2022-10-14T19:08:03.306Z,9.40
2022-10-14T19:13:06.124Z,9.40
2022-10-14T19:18:09.625Z,9.43
2022-10-14T19:23:12.397Z,9.45
2022-10-14T19:28:15.658Z,9.40
2022-10-14T19:33:18.508Z,9.35
2022-10-14T19:38:21.525Z,9.31
2022-10-14T19:43:24.186Z,9.28
2022-10-14T19:48:27.118Z,9.21
2022-10-14T19:58:41.007Z,9.16
2022-10-14T20:03:48.393Z,9.14
2022-10-14T20:08:51.553Z,9.12
2022-10-14T20:13:54.953Z,9.10
2022-10-14T20:18:57.824Z,9.06
2022-10-14T20:24:00.964Z,8.97
2022-10-14T20:29:03.899Z,8.93
2022-10-14T20:34:10.381Z,8.93
2022-10-14T20:39:14.293Z,8.93
2022-10-14T20:44:21.486Z,8.95
2022-10-14T20:49:26.421Z,8.90
2022-10-14T20:54:29.062Z,8.81
2022-10-14T20:59:32.547Z,8.73
2022-10-14T21:04:35.243Z,8.65
2022-10-14T21:09:37.942Z,8.57
2022-10-14T21:14:41.774Z,8.53
2022-10-14T21:19:44.467Z,8.48
2022-10-14T21:24:47.117Z,8.42
2022-10-14T21:29:49.946Z,8.40
2022-10-14T21:34:52.666Z,8.37
2022-10-14T21:39:55.286Z,8.35
2022-10-14T21:44:57.910Z,8.30
2022-10-14T21:50:00.548Z,8.28
2022-10-14T21:55:03.255Z,8.27
2022-10-14T22:00:08.690Z,8.27
2022-10-14T22:05:11.521Z,8.25
2022-10-14T22:10:33.169Z,8.24
2022-10-14T22:15:40.468Z,8.20
2022-10-14T22:20:43.606Z,8.18
2022-10-14T22:25:46.185Z,8.18
2022-10-14T22:30:48.752Z,8.17
2022-10-14T22:35:51.412Z,8.16
2022-10-14T22:40:54.023Z,8.16
2022-10-14T22:46:08.348Z,8.12
2022-10-14T22:51:17.008Z,8.07
2022-10-14T22:56:24.530Z,8.06
2022-10-14T23:01:28.260Z,8.05
2022-10-14T23:06:31.464Z,8.02
2022-10-14T23:11:34.009Z,7.98
2022-10-14T23:16:36.778Z,7.96
2022-10-14T23:21:39.665Z,7.91
2022-10-14T23:26:42.296Z,7.87
2022-10-14T23:31:44.913Z,7.85
2022-10-14T23:36:47.563Z,7.83
2022-10-14T23:41:50.355Z,7.83
2022-10-14T23:46:53.024Z,7.83
2022-10-14T23:51:55.678Z,7.81
2022-10-14T23:56:58.368Z,7.79
